sensor_id;sensor_type;location;lat;lon;timestamp;temperature;humidity
25410;DHT22;13339;50.840;4.346;2022-12-18T00:01:23;2.90;99.90
25410;DHT22;13339;50.840;4.346;2022-12-18T00:03:51;3.00;99.90
25410;DHT22;13339;50.840;4.346;2022-12-18T00:06:18;3.00;99.90
25410;DHT22;13339;50.840;4.346;2022-12-18T00:08:44;3.30;99.90
25410;DHT22;13339;50.840;4.346;2022-12-18T00:11:12;3.10;99.90
25410;DHT22;13339;50.840;4.346;2022-12-18T00:13:38;2.90;99.90
25410;DHT22;13339;50.840;4.346;2022-12-18T00:16:06;3.00;99.90
25410;DHT22;13339;50.840;4.346;2022-12-18T00:18:32;3.00;99.90
25410;DHT22;13339;50.840;4.346;2022-12-18T00:21:00;2.90;99.90
25410;DHT22;13339;50.840;4.346;2022-12-18T00:23:26;2.90;99.90
25410;DHT22;13339;50.840;4.346;2022-12-18T00:25:52;2.90;99.90
25410;DHT22;13339;50.840;4.346;2022-12-18T00:28:17;3.00;99.90
25410;DHT22;13339;50.840;4.346;2022-12-18T00:30:43;3.00;99.90
25410;DHT22;13339;50.840;4.346;2022-12-18T00:33:08;3.10;99.90
25410;DHT22;13339;50.840;4.346;2022-12-18T00:35:34;3.10;99.90
25410;DHT22;13339;50.840;4.346;2022-12-18T00:37:59;3.10;99.90
25410;DHT22;13339;50.840;4.346;2022-12-18T00:40:25;2.60;99.90
25410;DHT22;13339;50.840;4.346;2022-12-18T00:42:50;2.30;99.90
25410;DHT22;13339;50.840;4.346;2022-12-18T00:45:27;2.30;99.90
25410;DHT22;13339;50.840;4.346;2022-12-18T00:47:53;2.10;99.90
25410;DHT22;13339;50.840;4.346;2022-12-18T00:50:19;2.10;99.90
25410;DHT22;13339;50.840;4.346;2022-12-18T00:52:45;2.20;99.90
25410;DHT22;13339;50.840;4.346;2022-12-18T00:55:11;2.30;99.90
25410;DHT22;13339;50.840;4.346;2022-12-18T00:57:37;2.50;99.90
25410;DHT22;13339;50.840;4.346;2022-12-18T01:00:04;2.60;99.90
25410;DHT22;13339;50.840;4.346;2022-12-18T01:02:30;2.30;99.90
25410;DHT22;13339;50.840;4.346;2022-12-18T01:04:56;2.50;99.90
25410;DHT22;13339;50.840;4.346;2022-12-18T01:07:22;2.40;99.90
25410;DHT22;13339;50.840;4.346;2022-12-18T01:09:47;2.30;99.90
25410;DHT22;13339;50.840;4.346;2022-12-18T01:12:13;2.40;99.90
25410;DHT22;13339;50.840;4.346;2022-12-18T01:14:38;2.50;99.90
25410;DHT22;13339;50.840;4.346;2022-12-18T01:17:04;2.70;99.90
25410;DHT22;13339;50.840;4.346;2022-12-18T01:19:30;2.70;99.90
25410;DHT22;13339;50.840;4.346;2022-12-18T01:21:55;2.80;99.90
25410;DHT22;13339;50.840;4.346;2022-12-18T01:24:21;2.90;99.90
25410;DHT22;13339;50.840;4.346;2022-12-18T01:26:47;2.80;99.90
25410;DHT22;13339;50.840;4.346;2022-12-18T01:29:12;2.50;99.90
25410;DHT22;13339;50.840;4.346;2022-12-18T01:31:38;2.50;99.90
25410;DHT22;13339;50.840;4.346;2022-12-18T01:34:04;2.30;99.90
25410;DHT22;13339;50.840;4.346;2022-12-18T01:36:32;2.20;99.90
25410;DHT22;13339;50.840;4.346;2022-12-18T01:39:04;2.30;99.90
25410;DHT22;13339;50.840;4.346;2022-12-18T01:41:32;2.20;99.90
25410;DHT22;13339;50.840;4.346;2022-12-18T01:47:47;2.30;99.90
25410;DHT22;13339;50.840;4.346;2022-12-18T01:50:20;2.30;99.90
25410;DHT22;13339;50.840;4.346;2022-12-18T01:53:06;2.50;99.90
25410;DHT22;13339;50.840;4.346;2022-12-18T01:55:43;2.60;99.90
25410;DHT22;13339;50.840;4.346;2022-12-18T01:58:09;2.50;99.90
25410;DHT22;13339;50.840;4.346;2022-12-18T02:00:34;2.50;99.90
25410;DHT22;13339;50.840;4.346;2022-12-18T02:03:00;2.60;99.90
25410;DHT22;13339;50.840;4.346;2022-12-18T02:05:59;2.50;99.90
25410;DHT22;13339;50.840;4.346;2022-12-18T02:08:25;2.60;99.90
25410;DHT22;13339;50.840;4.346;2022-12-18T02:11:34;2.50;99.90
25410;DHT22;13339;50.840;4.346;2022-12-18T02:16:52;2.20;99.90
25410;DHT22;13339;50.840;4.346;2022-12-18T02:19:42;2.20;99.90
25410;DHT22;13339;50.840;4.346;2022-12-18T02:27:37;2.30;99.90
25410;DHT22;13339;50.840;4.346;2022-12-18T02:30:05;2.30;99.90
25410;DHT22;13339;50.840;4.346;2022-12-18T02:32:36;2.20;99.90
25410;DHT22;13339;50.840;4.346;2022-12-18T02:35:05;2.30;99.90
25410;DHT22;13339;50.840;4.346;2022-12-18T02:37:33;2.40;99.90
25410;DHT22;13339;50.840;4.346;2022-12-18T02:40:00;2.40;99.90
25410;DHT22;13339;50.840;4.346;2022-12-18T02:42:28;2.40;99.90
25410;DHT22;13339;50.840;4.346;2022-12-18T02:44:53;2.40;99.90
25410;DHT22;13339;50.840;4.346;2022-12-18T02:47:24;2.50;99.90
25410;DHT22;13339;50.840;4.346;2022-12-18T02:50:18;2.70;99.90
25410;DHT22;13339;50.840;4.346;2022-12-18T02:55:48;2.40;99.90
25410;DHT22;13339;50.840;4.346;2022-12-18T03:01:11;2.40;99.90
25410;DHT22;13339;50.840;4.346;2022-12-18T03:03:44;2.30;99.90
25410;DHT22;13339;50.840;4.346;2022-12-18T03:08:47;1.90;99.90
25410;DHT22;13339;50.840;4.346;2022-12-18T03:11:14;1.70;99.90
25410;DHT22;13339;50.840;4.346;2022-12-18T03:16:11;1.70;99.90
25410;DHT22;13339;50.840;4.346;2022-12-18T03:18:49;1.60;99.90
25410;DHT22;13339;50.840;4.346;2022-12-18T03:21:20;1.60;99.90
25410;DHT22;13339;50.840;4.346;2022-12-18T03:23:49;1.50;99.90
25410;DHT22;13339;50.840;4.346;2022-12-18T03:26:22;1.60;99.90
25410;DHT22;13339;50.840;4.346;2022-12-18T03:29:04;1.60;99.90
25410;DHT22;13339;50.840;4.346;2022-12-18T03:31:32;1.50;99.90
25410;DHT22;13339;50.840;4.346;2022-12-18T03:34:01;1.50;99.90
25410;DHT22;13339;50.840;4.346;2022-12-18T03:36:27;1.60;99.90
25410;DHT22;13339;50.840;4.346;2022-12-18T03:38:53;1.50;99.90
25410;DHT22;13339;50.840;4.346;2022-12-18T03:52:46;1.00;99.90
25410;DHT22;13339;50.840;4.346;2022-12-18T03:55:15;1.00;99.90
25410;DHT22;13339;50.840;4.346;2022-12-18T03:57:42;1.10;99.90
25410;DHT22;13339;50.840;4.346;2022-12-18T04:00:12;1.10;99.90
25410;DHT22;13339;50.840;4.346;2022-12-18T04:02:43;1.00;99.90
25410;DHT22;13339;50.840;4.346;2022-12-18T04:05:10;1.00;99.90
25410;DHT22;13339;50.840;4.346;2022-12-18T04:07:38;1.20;99.90
25410;DHT22;13339;50.840;4.346;2022-12-18T04:10:07;1.10;99.90
25410;DHT22;13339;50.840;4.346;2022-12-18T04:12:33;1.20;99.90
25410;DHT22;13339;50.840;4.346;2022-12-18T04:14:59;1.40;99.90
25410;DHT22;13339;50.840;4.346;2022-12-18T04:17:24;1.50;99.90
25410;DHT22;13339;50.840;4.346;2022-12-18T04:19:50;1.40;99.90
25410;DHT22;13339;50.840;4.346;2022-12-18T04:22:16;1.20;99.90
25410;DHT22;13339;50.840;4.346;2022-12-18T04:24:41;1.40;99.90
25410;DHT22;13339;50.840;4.346;2022-12-18T04:27:07;1.50;99.90
25410;DHT22;13339;50.840;4.346;2022-12-18T04:29:33;1.70;99.90
25410;DHT22;13339;50.840;4.346;2022-12-18T04:31:59;1.90;99.90
25410;DHT22;13339;50.840;4.346;2022-12-18T04:34:24;1.80;99.90
25410;DHT22;13339;50.840;4.346;2022-12-18T04:36:50;1.90;99.90
25410;DHT22;13339;50.840;4.346;2022-12-18T04:39:16;1.90;99.90
25410;DHT22;13339;50.840;4.346;2022-12-18T04:41:42;1.90;99.90
25410;DHT22;13339;50.840;4.346;2022-12-18T04:44:07;2.10;99.90
25410;DHT22;13339;50.840;4.346;2022-12-18T04:46:33;2.10;99.90
25410;DHT22;13339;50.840;4.346;2022-12-18T04:48:58;2.20;99.90
25410;DHT22;13339;50.840;4.346;2022-12-18T04:51:24;2.20;99.90
25410;DHT22;13339;50.840;4.346;2022-12-18T04:53:49;2.30;99.90
25410;DHT22;13339;50.840;4.346;2022-12-18T04:56:15;2.20;99.90
25410;DHT22;13339;50.840;4.346;2022-12-18T04:58:43;2.20;99.90
25410;DHT22;13339;50.840;4.346;2022-12-18T05:01:09;2.10;99.90
25410;DHT22;13339;50.840;4.346;2022-12-18T05:03:36;2.00;99.90
25410;DHT22;13339;50.840;4.346;2022-12-18T05:06:02;2.00;99.90
25410;DHT22;13339;50.840;4.346;2022-12-18T05:08:28;1.90;99.90
25410;DHT22;13339;50.840;4.346;2022-12-18T05:11:05;1.80;99.90
25410;DHT22;13339;50.840;4.346;2022-12-18T05:13:31;1.60;99.90
25410;DHT22;13339;50.840;4.346;2022-12-18T05:15:57;1.60;99.90
25410;DHT22;13339;50.840;4.346;2022-12-18T05:18:23;1.60;99.90
25410;DHT22;13339;50.840;4.346;2022-12-18T05:20:50;1.50;99.90
25410;DHT22;13339;50.840;4.346;2022-12-18T05:23:16;1.40;99.90
25410;DHT22;13339;50.840;4.346;2022-12-18T05:25:42;1.20;99.90
25410;DHT22;13339;50.840;4.346;2022-12-18T05:28:07;1.10;99.90
25410;DHT22;13339;50.840;4.346;2022-12-18T05:30:33;0.80;99.90
25410;DHT22;13339;50.840;4.346;2022-12-18T05:32:59;0.90;99.90
25410;DHT22;13339;50.840;4.346;2022-12-18T05:35:24;1.10;99.90
25410;DHT22;13339;50.840;4.346;2022-12-18T05:37:50;1.40;99.90
25410;DHT22;13339;50.840;4.346;2022-12-18T05:40:15;1.40;99.90
25410;DHT22;13339;50.840;4.346;2022-12-18T05:42:41;1.40;99.90
25410;DHT22;13339;50.840;4.346;2022-12-18T05:45:07;1.20;99.90
25410;DHT22;13339;50.840;4.346;2022-12-18T05:47:33;1.00;99.90
25410;DHT22;13339;50.840;4.346;2022-12-18T05:49:58;1.00;99.90
25410;DHT22;13339;50.840;4.346;2022-12-18T05:52:24;1.10;99.90
25410;DHT22;13339;50.840;4.346;2022-12-18T05:54:50;1.20;99.90
25410;DHT22;13339;50.840;4.346;2022-12-18T05:57:15;1.30;99.90
25410;DHT22;13339;50.840;4.346;2022-12-18T05:59:41;1.50;99.90
25410;DHT22;13339;50.840;4.346;2022-12-18T06:02:06;1.60;99.90
25410;DHT22;13339;50.840;4.346;2022-12-18T06:04:32;1.80;99.90
25410;DHT22;13339;50.840;4.346;2022-12-18T06:06:58;1.90;99.90
25410;DHT22;13339;50.840;4.346;2022-12-18T06:09:23;1.80;99.90
25410;DHT22;13339;50.840;4.346;2022-12-18T06:11:51;1.50;99.90
25410;DHT22;13339;50.840;4.346;2022-12-18T06:14:17;1.40;99.90
25410;DHT22;13339;50.840;4.346;2022-12-18T06:16:43;1.50;99.90
25410;DHT22;13339;50.840;4.346;2022-12-18T06:19:14;1.60;99.90
25410;DHT22;13339;50.840;4.346;2022-12-18T06:21:41;1.80;99.90
25410;DHT22;13339;50.840;4.346;2022-12-18T06:24:06;1.70;99.90
25410;DHT22;13339;50.840;4.346;2022-12-18T06:26:32;1.60;99.90
25410;DHT22;13339;50.840;4.346;2022-12-18T06:28:57;1.60;99.90
25410;DHT22;13339;50.840;4.346;2022-12-18T06:31:23;1.60;99.90
25410;DHT22;13339;50.840;4.346;2022-12-18T06:33:49;1.70;99.90
25410;DHT22;13339;50.840;4.346;2022-12-18T06:36:15;1.70;99.90
25410;DHT22;13339;50.840;4.346;2022-12-18T06:38:42;1.70;99.90
25410;DHT22;13339;50.840;4.346;2022-12-18T06:41:20;1.70;99.90
25410;DHT22;13339;50.840;4.346;2022-12-18T06:43:46;1.50;99.90
25410;DHT22;13339;50.840;4.346;2022-12-18T06:46:12;1.60;99.90
25410;DHT22;13339;50.840;4.346;2022-12-18T06:48:38;1.70;99.90
25410;DHT22;13339;50.840;4.346;2022-12-18T06:51:04;1.70;99.90
25410;DHT22;13339;50.840;4.346;2022-12-18T06:53:29;1.60;99.90
25410;DHT22;13339;50.840;4.346;2022-12-18T06:56:04;1.60;99.90
25410;DHT22;13339;50.840;4.346;2022-12-18T06:58:29;1.50;99.90
25410;DHT22;13339;50.840;4.346;2022-12-18T07:01:03;1.10;99.90
25410;DHT22;13339;50.840;4.346;2022-12-18T07:03:29;1.00;99.90
25410;DHT22;13339;50.840;4.346;2022-12-18T07:05:55;0.90;99.90
25410;DHT22;13339;50.840;4.346;2022-12-18T07:08:20;1.00;99.90
25410;DHT22;13339;50.840;4.346;2022-12-18T07:10:46;1.30;99.90
25410;DHT22;13339;50.840;4.346;2022-12-18T07:13:11;1.40;99.90
25410;DHT22;13339;50.840;4.346;2022-12-18T07:15:37;1.40;99.90
25410;DHT22;13339;50.840;4.346;2022-12-18T07:18:03;1.20;99.90
25410;DHT22;13339;50.840;4.346;2022-12-18T07:20:28;1.30;99.90
25410;DHT22;13339;50.840;4.346;2022-12-18T07:22:54;1.30;99.90
25410;DHT22;13339;50.840;4.346;2022-12-18T07:25:20;1.40;99.90
25410;DHT22;13339;50.840;4.346;2022-12-18T07:27:46;1.40;99.90
25410;DHT22;13339;50.840;4.346;2022-12-18T07:30:12;1.30;99.90
25410;DHT22;13339;50.840;4.346;2022-12-18T07:32:37;1.40;99.90
25410;DHT22;13339;50.840;4.346;2022-12-18T07:35:03;1.40;99.90
25410;DHT22;13339;50.840;4.346;2022-12-18T07:37:29;1.20;99.90
25410;DHT22;13339;50.840;4.346;2022-12-18T07:39:54;1.30;99.90
25410;DHT22;13339;50.840;4.346;2022-12-18T07:42:20;1.30;99.90
25410;DHT22;13339;50.840;4.346;2022-12-18T07:45:01;1.40;99.90
25410;DHT22;13339;50.840;4.346;2022-12-18T07:47:28;1.50;99.90
25410;DHT22;13339;50.840;4.346;2022-12-18T07:49:54;1.60;99.90
25410;DHT22;13339;50.840;4.346;2022-12-18T07:52:20;1.60;99.90
25410;DHT22;13339;50.840;4.346;2022-12-18T07:54:45;1.60;99.90
25410;DHT22;13339;50.840;4.346;2022-12-18T07:57:14;1.50;99.90
25410;DHT22;13339;50.840;4.346;2022-12-18T07:59:39;1.60;99.90
25410;DHT22;13339;50.840;4.346;2022-12-18T08:02:05;1.60;99.90
25410;DHT22;13339;50.840;4.346;2022-12-18T08:04:31;1.70;99.90
25410;DHT22;13339;50.840;4.346;2022-12-18T08:06:56;1.80;99.90
25410;DHT22;13339;50.840;4.346;2022-12-18T08:09:22;1.70;99.90
25410;DHT22;13339;50.840;4.346;2022-12-18T08:11:47;1.70;99.90
25410;DHT22;13339;50.840;4.346;2022-12-18T08:14:13;1.70;99.90
25410;DHT22;13339;50.840;4.346;2022-12-18T08:16:39;1.50;99.90
25410;DHT22;13339;50.840;4.346;2022-12-18T08:19:05;1.30;99.90
25410;DHT22;13339;50.840;4.346;2022-12-18T08:21:31;1.30;99.90
25410;DHT22;13339;50.840;4.346;2022-12-18T08:23:59;1.50;99.90
25410;DHT22;13339;50.840;4.346;2022-12-18T08:26:26;1.60;99.90
25410;DHT22;13339;50.840;4.346;2022-12-18T08:28:54;1.60;99.90
25410;DHT22;13339;50.840;4.346;2022-12-18T08:31:20;1.60;99.90
25410;DHT22;13339;50.840;4.346;2022-12-18T08:33:49;1.70;99.90
25410;DHT22;13339;50.840;4.346;2022-12-18T08:36:15;1.70;99.90
25410;DHT22;13339;50.840;4.346;2022-12-18T08:38:40;1.70;99.90
25410;DHT22;13339;50.840;4.346;2022-12-18T08:41:08;1.70;99.90
25410;DHT22;13339;50.840;4.346;2022-12-18T08:43:34;1.60;99.90
25410;DHT22;13339;50.840;4.346;2022-12-18T08:46:20;1.70;99.90
25410;DHT22;13339;50.840;4.346;2022-12-18T08:48:46;1.80;99.90
25410;DHT22;13339;50.840;4.346;2022-12-18T08:51:12;2.00;99.90
25410;DHT22;13339;50.840;4.346;2022-12-18T08:53:38;1.90;99.90
25410;DHT22;13339;50.840;4.346;2022-12-18T08:56:05;2.00;99.90
25410;DHT22;13339;50.840;4.346;2022-12-18T08:58:31;2.10;99.90
25410;DHT22;13339;50.840;4.346;2022-12-18T09:01:04;2.10;99.90
25410;DHT22;13339;50.840;4.346;2022-12-18T09:03:30;2.20;99.90
25410;DHT22;13339;50.840;4.346;2022-12-18T09:05:55;2.40;99.90
25410;DHT22;13339;50.840;4.346;2022-12-18T09:08:21;2.10;99.90
25410;DHT22;13339;50.840;4.346;2022-12-18T09:10:49;2.20;99.90
25410;DHT22;13339;50.840;4.346;2022-12-18T09:13:15;2.60;99.90
25410;DHT22;13339;50.840;4.346;2022-12-18T09:15:46;2.70;99.90
25410;DHT22;13339;50.840;4.346;2022-12-18T09:18:14;2.80;99.90
25410;DHT22;13339;50.840;4.346;2022-12-18T09:20:40;2.90;99.90
25410;DHT22;13339;50.840;4.346;2022-12-18T09:23:07;2.90;99.90
25410;DHT22;13339;50.840;4.346;2022-12-18T09:25:33;2.90;99.90
25410;DHT22;13339;50.840;4.346;2022-12-18T09:28:02;3.00;99.90
25410;DHT22;13339;50.840;4.346;2022-12-18T09:30:27;3.20;99.90
25410;DHT22;13339;50.840;4.346;2022-12-18T09:32:53;3.20;99.90
25410;DHT22;13339;50.840;4.346;2022-12-18T09:35:19;3.20;99.90
25410;DHT22;13339;50.840;4.346;2022-12-18T09:37:44;3.00;99.90
25410;DHT22;13339;50.840;4.346;2022-12-18T09:40:18;3.00;99.90
25410;DHT22;13339;50.840;4.346;2022-12-18T09:43:04;3.00;99.90
25410;DHT22;13339;50.840;4.346;2022-12-18T09:45:43;3.20;99.90
25410;DHT22;13339;50.840;4.346;2022-12-18T09:48:31;3.10;99.90
25410;DHT22;13339;50.840;4.346;2022-12-18T09:52:02;3.30;99.90
25410;DHT22;13339;50.840;4.346;2022-12-18T09:54:07;3.10;99.90
25410;DHT22;13339;50.840;4.346;2022-12-18T09:56:40;3.10;99.90
25410;DHT22;13339;50.840;4.346;2022-12-18T09:59:22;3.30;99.90
25410;DHT22;13339;50.840;4.346;2022-12-18T10:01:49;3.60;99.90
25410;DHT22;13339;50.840;4.346;2022-12-18T10:04:14;3.60;99.90
25410;DHT22;13339;50.840;4.346;2022-12-18T10:06:58;3.70;99.90
25410;DHT22;13339;50.840;4.346;2022-12-18T10:09:37;3.70;99.90
25410;DHT22;13339;50.840;4.346;2022-12-18T10:20:46;3.70;99.90
25410;DHT22;13339;50.840;4.346;2022-12-18T10:26:06;3.80;99.90
25410;DHT22;13339;50.840;4.346;2022-12-18T10:28:35;3.90;99.90
25410;DHT22;13339;50.840;4.346;2022-12-18T10:31:01;4.00;99.90
25410;DHT22;13339;50.840;4.346;2022-12-18T10:33:32;4.00;99.90
25410;DHT22;13339;50.840;4.346;2022-12-18T10:35:59;4.10;99.90
25410;DHT22;13339;50.840;4.346;2022-12-18T10:38:30;4.20;99.90
25410;DHT22;13339;50.840;4.346;2022-12-18T10:41:45;4.30;99.90
25410;DHT22;13339;50.840;4.346;2022-12-18T10:44:12;4.50;99.90
25410;DHT22;13339;50.840;4.346;2022-12-18T10:46:38;4.70;99.90
25410;DHT22;13339;50.840;4.346;2022-12-18T10:49:04;4.90;99.90
25410;DHT22;13339;50.840;4.346;2022-12-18T10:54:18;4.70;99.90
25410;DHT22;13339;50.840;4.346;2022-12-18T10:56:46;4.80;99.90
25410;DHT22;13339;50.840;4.346;2022-12-18T10:59:15;4.90;99.90
25410;DHT22;13339;50.840;4.346;2022-12-18T11:04:22;5.40;99.90
25410;DHT22;13339;50.840;4.346;2022-12-18T11:07:08;5.40;99.90
25410;DHT22;13339;50.840;4.346;2022-12-18T11:09:35;5.50;99.90
25410;DHT22;13339;50.840;4.346;2022-12-18T11:12:23;5.50;99.90
25410;DHT22;13339;50.840;4.346;2022-12-18T11:14:51;5.40;99.90
25410;DHT22;13339;50.840;4.346;2022-12-18T11:17:22;5.40;99.90
25410;DHT22;13339;50.840;4.346;2022-12-18T11:19:55;5.50;99.90
25410;DHT22;13339;50.840;4.346;2022-12-18T11:25:04;5.80;99.90
25410;DHT22;13339;50.840;4.346;2022-12-18T11:27:31;5.90;99.90
25410;DHT22;13339;50.840;4.346;2022-12-18T11:32:48;5.80;99.90
25410;DHT22;13339;50.840;4.346;2022-12-18T11:35:21;5.90;99.90
25410;DHT22;13339;50.840;4.346;2022-12-18T11:37:54;5.70;99.90
25410;DHT22;13339;50.840;4.346;2022-12-18T11:40:30;4.90;99.90
25410;DHT22;13339;50.840;4.346;2022-12-18T11:43:06;5.00;99.90
25410;DHT22;13339;50.840;4.346;2022-12-18T11:45:39;5.00;99.90
25410;DHT22;13339;50.840;4.346;2022-12-18T11:48:14;5.10;99.90
25410;DHT22;13339;50.840;4.346;2022-12-18T11:50:53;5.30;99.90
25410;DHT22;13339;50.840;4.346;2022-12-18T11:53:20;5.20;99.90
25410;DHT22;13339;50.840;4.346;2022-12-18T11:58:47;5.20;99.90
25410;DHT22;13339;50.840;4.346;2022-12-18T12:12:32;5.40;99.90
25410;DHT22;13339;50.840;4.346;2022-12-18T12:23:54;5.70;99.90
25410;DHT22;13339;50.840;4.346;2022-12-18T12:34:33;5.90;99.90
25410;DHT22;13339;50.840;4.346;2022-12-18T12:39:39;6.40;99.90
25410;DHT22;13339;50.840;4.346;2022-12-18T12:42:14;6.40;99.90
25410;DHT22;13339;50.840;4.346;2022-12-18T12:45:04;6.40;99.90
25410;DHT22;13339;50.840;4.346;2022-12-18T12:47:38;6.40;99.90
25410;DHT22;13339;50.840;4.346;2022-12-18T12:50:13;6.40;99.90
25410;DHT22;13339;50.840;4.346;2022-12-18T12:52:44;6.40;99.90
25410;DHT22;13339;50.840;4.346;2022-12-18T12:55:20;6.30;99.90
25410;DHT22;13339;50.840;4.346;2022-12-18T13:00:20;6.20;99.90
25410;DHT22;13339;50.840;4.346;2022-12-18T13:05:31;6.20;99.90
25410;DHT22;13339;50.840;4.346;2022-12-18T13:08:05;6.30;99.90
25410;DHT22;13339;50.840;4.346;2022-12-18T13:10:42;6.30;99.90
25410;DHT22;13339;50.840;4.346;2022-12-18T13:13:08;6.40;99.90
25410;DHT22;13339;50.840;4.346;2022-12-18T13:15:46;6.10;99.90
25410;DHT22;13339;50.840;4.346;2022-12-18T13:31:12;5.10;99.90
25410;DHT22;13339;50.840;4.346;2022-12-18T13:33:40;5.20;99.90
25410;DHT22;13339;50.840;4.346;2022-12-18T13:36:27;5.30;99.90
25410;DHT22;13339;50.840;4.346;2022-12-18T13:41:41;5.40;99.90
25410;DHT22;13339;50.840;4.346;2022-12-18T13:44:24;5.40;99.90
25410;DHT22;13339;50.840;4.346;2022-12-18T13:46:51;5.50;99.90
25410;DHT22;13339;50.840;4.346;2022-12-18T13:49:27;5.50;99.90
25410;DHT22;13339;50.840;4.346;2022-12-18T13:51:56;5.60;99.90
25410;DHT22;13339;50.840;4.346;2022-12-18T13:54:36;5.70;99.90
25410;DHT22;13339;50.840;4.346;2022-12-18T13:57:05;5.70;99.90
25410;DHT22;13339;50.840;4.346;2022-12-18T13:59:39;5.70;99.90
25410;DHT22;13339;50.840;4.346;2022-12-18T14:02:20;5.60;99.90
25410;DHT22;13339;50.840;4.346;2022-12-18T14:04:47;5.70;99.90
25410;DHT22;13339;50.840;4.346;2022-12-18T14:07:16;5.80;99.90
25410;DHT22;13339;50.840;4.346;2022-12-18T14:09:44;5.80;99.90
25410;DHT22;13339;50.840;4.346;2022-12-18T14:12:34;5.80;99.90
25410;DHT22;13339;50.840;4.346;2022-12-18T14:17:54;5.90;99.90
25410;DHT22;13339;50.840;4.346;2022-12-18T14:20:21;5.90;99.90
25410;DHT22;13339;50.840;4.346;2022-12-18T14:22:48;5.80;99.90
25410;DHT22;13339;50.840;4.346;2022-12-18T14:27:45;5.80;99.90
25410;DHT22;13339;50.840;4.346;2022-12-18T14:33:10;5.90;99.90
25410;DHT22;13339;50.840;4.346;2022-12-18T14:35:41;6.00;99.90
25410;DHT22;13339;50.840;4.346;2022-12-18T14:41:12;6.00;99.90
25410;DHT22;13339;50.840;4.346;2022-12-18T14:43:40;6.00;99.90
25410;DHT22;13339;50.840;4.346;2022-12-18T14:46:27;5.90;99.90
25410;DHT22;13339;50.840;4.346;2022-12-18T14:48:53;5.90;99.90
25410;DHT22;13339;50.840;4.346;2022-12-18T14:51:21;5.80;99.90
25410;DHT22;13339;50.840;4.346;2022-12-18T14:53:53;5.90;99.90
25410;DHT22;13339;50.840;4.346;2022-12-18T14:56:20;5.80;99.90
25410;DHT22;13339;50.840;4.346;2022-12-18T14:59:13;5.80;99.90
25410;DHT22;13339;50.840;4.346;2022-12-18T15:02:09;5.80;99.90
25410;DHT22;13339;50.840;4.346;2022-12-18T15:04:40;5.80;99.90
25410;DHT22;13339;50.840;4.346;2022-12-18T15:07:12;5.60;99.90
25410;DHT22;13339;50.840;4.346;2022-12-18T15:09:40;5.50;99.90
25410;DHT22;13339;50.840;4.346;2022-12-18T15:12:42;5.40;99.90
25410;DHT22;13339;50.840;4.346;2022-12-18T15:20:50;5.40;99.90
25410;DHT22;13339;50.840;4.346;2022-12-18T15:23:29;5.50;99.90
25410;DHT22;13339;50.840;4.346;2022-12-18T15:26:06;5.50;99.90
25410;DHT22;13339;50.840;4.346;2022-12-18T15:33:36;5.30;99.90
25410;DHT22;13339;50.840;4.346;2022-12-18T15:36:05;5.30;99.90
25410;DHT22;13339;50.840;4.346;2022-12-18T15:38:31;5.50;99.90
25410;DHT22;13339;50.840;4.346;2022-12-18T15:40:57;5.60;99.90
25410;DHT22;13339;50.840;4.346;2022-12-18T15:43:24;5.60;99.90
25410;DHT22;13339;50.840;4.346;2022-12-18T15:46:02;5.70;99.90
25410;DHT22;13339;50.840;4.346;2022-12-18T15:48:29;5.50;99.90
25410;DHT22;13339;50.840;4.346;2022-12-18T15:50:56;5.40;99.90
25410;DHT22;13339;50.840;4.346;2022-12-18T15:53:24;5.40;99.90
25410;DHT22;13339;50.840;4.346;2022-12-18T15:55:49;5.20;99.90
25410;DHT22;13339;50.840;4.346;2022-12-18T15:58:34;5.30;99.90
25410;DHT22;13339;50.840;4.346;2022-12-18T16:01:00;5.40;99.90
25410;DHT22;13339;50.840;4.346;2022-12-18T16:03:26;5.50;99.90
25410;DHT22;13339;50.840;4.346;2022-12-18T16:05:52;5.20;99.90
25410;DHT22;13339;50.840;4.346;2022-12-18T16:08:18;5.30;99.90
25410;DHT22;13339;50.840;4.346;2022-12-18T16:10:43;5.30;99.90
25410;DHT22;13339;50.840;4.346;2022-12-18T16:13:11;5.20;99.90
25410;DHT22;13339;50.840;4.346;2022-12-18T16:15:37;5.00;99.90
25410;DHT22;13339;50.840;4.346;2022-12-18T16:18:02;5.20;99.90
25410;DHT22;13339;50.840;4.346;2022-12-18T16:20:28;5.20;99.90
25410;DHT22;13339;50.840;4.346;2022-12-18T16:22:53;5.20;99.90
25410;DHT22;13339;50.840;4.346;2022-12-18T16:25:20;5.40;99.90
25410;DHT22;13339;50.840;4.346;2022-12-18T16:27:46;5.30;99.90
25410;DHT22;13339;50.840;4.346;2022-12-18T16:30:17;5.40;99.90
25410;DHT22;13339;50.840;4.346;2022-12-18T16:32:43;5.60;99.90
25410;DHT22;13339;50.840;4.346;2022-12-18T16:35:13;5.50;99.90
25410;DHT22;13339;50.840;4.346;2022-12-18T16:37:39;5.40;99.90
25410;DHT22;13339;50.840;4.346;2022-12-18T16:40:07;5.50;99.90
25410;DHT22;13339;50.840;4.346;2022-12-18T16:42:35;5.30;99.90
25410;DHT22;13339;50.840;4.346;2022-12-18T16:45:02;5.20;99.90
25410;DHT22;13339;50.840;4.346;2022-12-18T16:47:28;5.20;99.90
25410;DHT22;13339;50.840;4.346;2022-12-18T16:49:53;5.20;99.90
25410;DHT22;13339;50.840;4.346;2022-12-18T16:52:19;5.30;99.90
25410;DHT22;13339;50.840;4.346;2022-12-18T16:54:45;5.40;99.90
25410;DHT22;13339;50.840;4.346;2022-12-18T16:57:13;5.50;99.90
25410;DHT22;13339;50.840;4.346;2022-12-18T16:59:39;5.60;99.90
25410;DHT22;13339;50.840;4.346;2022-12-18T17:02:09;5.60;99.90
25410;DHT22;13339;50.840;4.346;2022-12-18T17:04:37;5.70;99.90
25410;DHT22;13339;50.840;4.346;2022-12-18T17:07:02;5.70;99.90
25410;DHT22;13339;50.840;4.346;2022-12-18T17:09:29;5.70;99.90
25410;DHT22;13339;50.840;4.346;2022-12-18T17:11:55;5.80;99.90
25410;DHT22;13339;50.840;4.346;2022-12-18T17:14:22;5.60;99.90
25410;DHT22;13339;50.840;4.346;2022-12-18T17:16:48;5.50;99.90
25410;DHT22;13339;50.840;4.346;2022-12-18T17:19:14;5.50;99.90
25410;DHT22;13339;50.840;4.346;2022-12-18T17:21:41;5.50;99.90
25410;DHT22;13339;50.840;4.346;2022-12-18T17:24:07;5.70;99.90
25410;DHT22;13339;50.840;4.346;2022-12-18T17:26:33;5.60;99.90
25410;DHT22;13339;50.840;4.346;2022-12-18T17:28:58;5.60;99.90
25410;DHT22;13339;50.840;4.346;2022-12-18T17:31:26;5.70;99.90
25410;DHT22;13339;50.840;4.346;2022-12-18T17:33:52;5.60;99.90
25410;DHT22;13339;50.840;4.346;2022-12-18T17:36:19;5.50;99.90
25410;DHT22;13339;50.840;4.346;2022-12-18T17:38:55;5.70;99.90
25410;DHT22;13339;50.840;4.346;2022-12-18T17:41:22;5.60;99.90
25410;DHT22;13339;50.840;4.346;2022-12-18T17:43:56;5.60;99.90
25410;DHT22;13339;50.840;4.346;2022-12-18T17:46:22;5.60;99.90
25410;DHT22;13339;50.840;4.346;2022-12-18T17:48:48;5.70;99.90
25410;DHT22;13339;50.840;4.346;2022-12-18T17:51:14;5.60;99.90
25410;DHT22;13339;50.840;4.346;2022-12-18T17:53:41;5.70;99.90
25410;DHT22;13339;50.840;4.346;2022-12-18T17:56:11;5.70;99.90
25410;DHT22;13339;50.840;4.346;2022-12-18T17:58:36;5.70;99.90
25410;DHT22;13339;50.840;4.346;2022-12-18T18:01:03;5.60;99.90
25410;DHT22;13339;50.840;4.346;2022-12-18T18:03:28;5.80;99.90
25410;DHT22;13339;50.840;4.346;2022-12-18T18:05:56;5.80;99.90
25410;DHT22;13339;50.840;4.346;2022-12-18T18:08:22;5.70;99.90
25410;DHT22;13339;50.840;4.346;2022-12-18T18:10:48;5.90;99.90